sensor_id;sensor_type;location;lat;lon;timestamp;temperature;humidity
50162;DHT22;36061;48.116;11.612;2023-04-08T00:01:11;6.30;99.90
50162;DHT22;36061;48.116;11.612;2023-04-08T00:03:39;6.30;99.90
50162;DHT22;36061;48.116;11.612;2023-04-08T00:06:07;6.20;99.90
50162;DHT22;36061;48.116;11.612;2023-04-08T00:08:34;6.20;99.90
50162;DHT22;36061;48.116;11.612;2023-04-08T00:11:01;6.20;99.90
50162;DHT22;36061;48.116;11.612;2023-04-08T00:13:28;6.20;99.90
50162;DHT22;36061;48.116;11.612;2023-04-08T00:15:56;6.10;99.90
50162;DHT22;36061;48.116;11.612;2023-04-08T00:18:23;6.10;99.90
50162;DHT22;36061;48.116;11.612;2023-04-08T00:20:53;6.10;99.90
50162;DHT22;36061;48.116;11.612;2023-04-08T00:23:22;6.10;99.90
50162;DHT22;36061;48.116;11.612;2023-04-08T00:25:49;6.10;99.90
50162;DHT22;36061;48.116;11.612;2023-04-08T00:28:17;6.10;99.90
50162;DHT22;36061;48.116;11.612;2023-04-08T00:30:44;6.10;99.90
50162;DHT22;36061;48.116;11.612;2023-04-08T00:33:11;6.00;99.90
50162;DHT22;36061;48.116;11.612;2023-04-08T00:35:38;6.00;99.90
50162;DHT22;36061;48.116;11.612;2023-04-08T00:38:07;6.00;99.90
50162;DHT22;36061;48.116;11.612;2023-04-08T00:40:34;6.00;99.90
50162;DHT22;36061;48.116;11.612;2023-04-08T00:43:01;6.00;99.90
50162;DHT22;36061;48.116;11.612;2023-04-08T00:45:29;6.00;99.90
50162;DHT22;36061;48.116;11.612;2023-04-08T00:47:56;6.00;99.90
50162;DHT22;36061;48.116;11.612;2023-04-08T00:50:23;6.00;99.90
50162;DHT22;36061;48.116;11.612;2023-04-08T00:52:51;6.00;99.90
50162;DHT22;36061;48.116;11.612;2023-04-08T00:55:20;5.90;99.90
50162;DHT22;36061;48.116;11.612;2023-04-08T00:57:47;5.90;99.90
50162;DHT22;36061;48.116;11.612;2023-04-08T01:00:15;5.90;99.90
50162;DHT22;36061;48.116;11.612;2023-04-08T01:02:46;5.90;99.90
50162;DHT22;36061;48.116;11.612;2023-04-08T01:05:23;5.80;99.90
50162;DHT22;36061;48.116;11.612;2023-04-08T01:07:54;5.80;99.90
50162;DHT22;36061;48.116;11.612;2023-04-08T01:10:28;5.70;99.90
50162;DHT22;36061;48.116;11.612;2023-04-08T01:12:58;5.70;99.90
50162;DHT22;36061;48.116;11.612;2023-04-08T01:15:28;5.60;99.90
50162;DHT22;36061;48.116;11.612;2023-04-08T01:17:58;5.70;99.90
50162;DHT22;36061;48.116;11.612;2023-04-08T01:20:26;5.60;99.90
50162;DHT22;36061;48.116;11.612;2023-04-08T01:23:05;5.60;99.90
50162;DHT22;36061;48.116;11.612;2023-04-08T01:25:36;5.50;99.90
50162;DHT22;36061;48.116;11.612;2023-04-08T01:28:06;5.50;99.90
50162;DHT22;36061;48.116;11.612;2023-04-08T01:30:35;5.50;99.90
50162;DHT22;36061;48.116;11.612;2023-04-08T01:33:04;5.50;99.90
50162;DHT22;36061;48.116;11.612;2023-04-08T01:35:32;5.40;99.90
50162;DHT22;36061;48.116;11.612;2023-04-08T01:38:00;5.40;99.90
50162;DHT22;36061;48.116;11.612;2023-04-08T01:40:28;5.40;99.90
50162;DHT22;36061;48.116;11.612;2023-04-08T01:42:57;5.40;99.90
50162;DHT22;36061;48.116;11.612;2023-04-08T01:45:27;5.50;99.90
50162;DHT22;36061;48.116;11.612;2023-04-08T01:47:57;5.50;99.90
50162;DHT22;36061;48.116;11.612;2023-04-08T01:50:26;5.50;99.90
50162;DHT22;36061;48.116;11.612;2023-04-08T01:52:54;5.40;99.90
50162;DHT22;36061;48.116;11.612;2023-04-08T01:55:22;5.50;99.90
50162;DHT22;36061;48.116;11.612;2023-04-08T01:57:52;5.40;99.90
50162;DHT22;36061;48.116;11.612;2023-04-08T02:00:24;5.40;99.90
50162;DHT22;36061;48.116;11.612;2023-04-08T02:02:53;5.40;99.90
50162;DHT22;36061;48.116;11.612;2023-04-08T02:05:21;5.40;99.90
50162;DHT22;36061;48.116;11.612;2023-04-08T02:07:48;5.40;99.90
50162;DHT22;36061;48.116;11.612;2023-04-08T02:10:16;5.30;99.90
50162;DHT22;36061;48.116;11.612;2023-04-08T02:12:44;5.30;99.90
50162;DHT22;36061;48.116;11.612;2023-04-08T02:15:12;5.30;99.90
50162;DHT22;36061;48.116;11.612;2023-04-08T02:17:43;5.30;99.90
50162;DHT22;36061;48.116;11.612;2023-04-08T02:20:17;5.30;99.90
50162;DHT22;36061;48.116;11.612;2023-04-08T02:22:48;5.30;99.90
50162;DHT22;36061;48.116;11.612;2023-04-08T02:25:20;5.30;99.90
50162;DHT22;36061;48.116;11.612;2023-04-08T02:27:49;5.20;99.90
50162;DHT22;36061;48.116;11.612;2023-04-08T02:30:18;5.20;99.90
50162;DHT22;36061;48.116;11.612;2023-04-08T02:32:47;5.20;99.90
50162;DHT22;36061;48.116;11.612;2023-04-08T02:35:16;5.20;99.90
50162;DHT22;36061;48.116;11.612;2023-04-08T02:37:45;5.20;99.90
50162;DHT22;36061;48.116;11.612;2023-04-08T02:40:25;5.20;99.90
50162;DHT22;36061;48.116;11.612;2023-04-08T02:42:52;5.20;99.90
50162;DHT22;36061;48.116;11.612;2023-04-08T02:45:20;5.20;99.90
50162;DHT22;36061;48.116;11.612;2023-04-08T02:47:49;5.10;99.90
50162;DHT22;36061;48.116;11.612;2023-04-08T02:50:18;5.20;99.90
50162;DHT22;36061;48.116;11.612;2023-04-08T02:52:45;5.20;99.90
50162;DHT22;36061;48.116;11.612;2023-04-08T02:55:12;5.20;99.90
50162;DHT22;36061;48.116;11.612;2023-04-08T02:57:40;5.20;99.90
50162;DHT22;36061;48.116;11.612;2023-04-08T03:00:09;5.20;99.90
50162;DHT22;36061;48.116;11.612;2023-04-08T03:02:36;5.20;99.90
50162;DHT22;36061;48.116;11.612;2023-04-08T03:05:04;5.20;99.90
50162;DHT22;36061;48.116;11.612;2023-04-08T03:07:33;5.20;99.90
50162;DHT22;36061;48.116;11.612;2023-04-08T03:10:01;5.20;99.90
50162;DHT22;36061;48.116;11.612;2023-04-08T03:12:28;5.20;99.90
50162;DHT22;36061;48.116;11.612;2023-04-08T03:14:56;5.20;99.90
50162;DHT22;36061;48.116;11.612;2023-04-08T03:17:23;5.20;99.90
50162;DHT22;36061;48.116;11.612;2023-04-08T03:19:50;5.20;99.90
50162;DHT22;36061;48.116;11.612;2023-04-08T03:22:18;5.20;99.90
50162;DHT22;36061;48.116;11.612;2023-04-08T03:24:46;5.30;99.90
50162;DHT22;36061;48.116;11.612;2023-04-08T03:27:14;5.30;99.90
50162;DHT22;36061;48.116;11.612;2023-04-08T03:29:41;5.30;99.90
50162;DHT22;36061;48.116;11.612;2023-04-08T03:32:10;5.30;99.90
50162;DHT22;36061;48.116;11.612;2023-04-08T03:34:37;5.30;99.90
50162;DHT22;36061;48.116;11.612;2023-04-08T03:37:05;5.30;99.90
50162;DHT22;36061;48.116;11.612;2023-04-08T03:39:32;5.30;99.90
50162;DHT22;36061;48.116;11.612;2023-04-08T03:42:01;5.30;99.90
50162;DHT22;36061;48.116;11.612;2023-04-08T03:44:28;5.30;99.90
50162;DHT22;36061;48.116;11.612;2023-04-08T03:46:55;5.20;99.90
50162;DHT22;36061;48.116;11.612;2023-04-08T03:49:23;5.30;99.90
50162;DHT22;36061;48.116;11.612;2023-04-08T03:51:50;5.30;99.90
50162;DHT22;36061;48.116;11.612;2023-04-08T03:54:17;5.30;99.90
50162;DHT22;36061;48.116;11.612;2023-04-08T03:56:44;5.30;99.90
50162;DHT22;36061;48.116;11.612;2023-04-08T03:59:13;5.30;99.90
50162;DHT22;36061;48.116;11.612;2023-04-08T04:01:40;5.30;99.90
50162;DHT22;36061;48.116;11.612;2023-04-08T04:04:07;5.30;99.90
50162;DHT22;36061;48.116;11.612;2023-04-08T04:06:34;5.30;99.90
50162;DHT22;36061;48.116;11.612;2023-04-08T04:09:02;5.30;99.90
50162;DHT22;36061;48.116;11.612;2023-04-08T04:11:29;5.30;99.90
50162;DHT22;36061;48.116;11.612;2023-04-08T04:13:57;5.30;99.90
50162;DHT22;36061;48.116;11.612;2023-04-08T04:16:25;5.30;99.90
50162;DHT22;36061;48.116;11.612;2023-04-08T04:18:52;5.20;99.90
50162;DHT22;36061;48.116;11.612;2023-04-08T04:21:20;5.30;99.90
50162;DHT22;36061;48.116;11.612;2023-04-08T04:23:47;5.30;99.90
50162;DHT22;36061;48.116;11.612;2023-04-08T04:26:14;5.30;99.90
50162;DHT22;36061;48.116;11.612;2023-04-08T04:28:41;5.30;99.90
50162;DHT22;36061;48.116;11.612;2023-04-08T04:31:17;5.30;99.90
50162;DHT22;36061;48.116;11.612;2023-04-08T04:33:46;5.30;99.90
50162;DHT22;36061;48.116;11.612;2023-04-08T04:36:13;5.30;99.90
50162;DHT22;36061;48.116;11.612;2023-04-08T04:38:40;5.30;99.90
50162;DHT22;36061;48.116;11.612;2023-04-08T04:41:08;5.40;99.90
50162;DHT22;36061;48.116;11.612;2023-04-08T04:43:36;5.40;99.90
50162;DHT22;36061;48.116;11.612;2023-04-08T04:46:03;5.40;99.90
50162;DHT22;36061;48.116;11.612;2023-04-08T04:48:33;5.40;99.90
50162;DHT22;36061;48.116;11.612;2023-04-08T04:51:02;5.40;99.90
50162;DHT22;36061;48.116;11.612;2023-04-08T04:53:30;5.40;99.90
50162;DHT22;36061;48.116;11.612;2023-04-08T04:55:57;5.50;99.90
50162;DHT22;36061;48.116;11.612;2023-04-08T04:58:26;5.50;99.90
50162;DHT22;36061;48.116;11.612;2023-04-08T05:00:53;5.60;99.90
50162;DHT22;36061;48.116;11.612;2023-04-08T05:03:21;5.60;99.90
50162;DHT22;36061;48.116;11.612;2023-04-08T05:05:50;5.60;99.90
50162;DHT22;36061;48.116;11.612;2023-04-08T05:08:19;5.50;99.90
50162;DHT22;36061;48.116;11.612;2023-04-08T05:10:47;5.60;99.90
50162;DHT22;36061;48.116;11.612;2023-04-08T05:13:15;5.60;99.90
50162;DHT22;36061;48.116;11.612;2023-04-08T05:15:43;5.70;99.90
50162;DHT22;36061;48.116;11.612;2023-04-08T05:18:11;5.70;99.90
50162;DHT22;36061;48.116;11.612;2023-04-08T05:20:38;5.80;99.90
50162;DHT22;36061;48.116;11.612;2023-04-08T05:23:05;5.80;99.90
50162;DHT22;36061;48.116;11.612;2023-04-08T05:25:34;5.80;99.90
50162;DHT22;36061;48.116;11.612;2023-04-08T05:28:02;5.90;99.90
50162;DHT22;36061;48.116;11.612;2023-04-08T05:30:29;5.90;99.90
50162;DHT22;36061;48.116;11.612;2023-04-08T05:32:56;5.90;99.90
50162;DHT22;36061;48.116;11.612;2023-04-08T05:35:24;6.00;99.90
50162;DHT22;36061;48.116;11.612;2023-04-08T05:37:51;6.00;99.90
50162;DHT22;36061;48.116;11.612;2023-04-08T05:40:18;6.00;99.90
50162;DHT22;36061;48.116;11.612;2023-04-08T05:42:47;6.10;99.90
50162;DHT22;36061;48.116;11.612;2023-04-08T05:45:14;6.10;99.90
50162;DHT22;36061;48.116;11.612;2023-04-08T05:47:42;6.20;99.90
50162;DHT22;36061;48.116;11.612;2023-04-08T05:50:10;6.20;99.90
50162;DHT22;36061;48.116;11.612;2023-04-08T05:52:40;6.20;99.90
50162;DHT22;36061;48.116;11.612;2023-04-08T05:55:08;6.30;99.90
50162;DHT22;36061;48.116;11.612;2023-04-08T05:57:35;6.30;99.90
50162;DHT22;36061;48.116;11.612;2023-04-08T06:00:05;6.30;99.90
50162;DHT22;36061;48.116;11.612;2023-04-08T06:02:33;6.30;99.90
50162;DHT22;36061;48.116;11.612;2023-04-08T06:05:00;6.30;99.90
50162;DHT22;36061;48.116;11.612;2023-04-08T06:07:28;6.40;99.90
50162;DHT22;36061;48.116;11.612;2023-04-08T06:09:55;6.40;99.90
50162;DHT22;36061;48.116;11.612;2023-04-08T06:12:23;6.40;99.90
50162;DHT22;36061;48.116;11.612;2023-04-08T06:14:53;6.40;99.90
50162;DHT22;36061;48.116;11.612;2023-04-08T06:17:22;6.50;99.90
50162;DHT22;36061;48.116;11.612;2023-04-08T06:19:49;6.50;99.90
50162;DHT22;36061;48.116;11.612;2023-04-08T06:22:16;6.50;99.90
50162;DHT22;36061;48.116;11.612;2023-04-08T06:24:44;6.60;99.90
50162;DHT22;36061;48.116;11.612;2023-04-08T06:27:12;6.60;99.90
50162;DHT22;36061;48.116;11.612;2023-04-08T06:29:40;6.70;99.90
50162;DHT22;36061;48.116;11.612;2023-04-08T06:32:07;6.70;99.90
50162;DHT22;36061;48.116;11.612;2023-04-08T06:34:35;6.70;99.90
50162;DHT22;36061;48.116;11.612;2023-04-08T06:37:03;6.70;99.90
50162;DHT22;36061;48.116;11.612;2023-04-08T06:39:31;6.70;99.90
50162;DHT22;36061;48.116;11.612;2023-04-08T06:41:58;6.70;99.90
50162;DHT22;36061;48.116;11.612;2023-04-08T06:44:35;6.70;99.90
50162;DHT22;36061;48.116;11.612;2023-04-08T06:47:02;6.70;99.90
50162;DHT22;36061;48.116;11.612;2023-04-08T06:49:30;6.70;99.90
50162;DHT22;36061;48.116;11.612;2023-04-08T06:51:59;6.70;99.90
50162;DHT22;36061;48.116;11.612;2023-04-08T06:54:26;6.70;99.90
50162;DHT22;36061;48.116;11.612;2023-04-08T06:56:53;6.70;99.90
50162;DHT22;36061;48.116;11.612;2023-04-08T06:59:20;6.70;99.90
50162;DHT22;36061;48.116;11.612;2023-04-08T07:01:48;6.70;99.90
50162;DHT22;36061;48.116;11.612;2023-04-08T07:04:15;6.80;99.90
50162;DHT22;36061;48.116;11.612;2023-04-08T07:06:42;6.80;99.90
50162;DHT22;36061;48.116;11.612;2023-04-08T07:09:11;6.80;99.90
50162;DHT22;36061;48.116;11.612;2023-04-08T07:11:39;6.80;99.90
50162;DHT22;36061;48.116;11.612;2023-04-08T07:14:06;6.90;99.90
50162;DHT22;36061;48.116;11.612;2023-04-08T07:16:33;6.90;99.90
50162;DHT22;36061;48.116;11.612;2023-04-08T07:19:00;6.90;99.90
50162;DHT22;36061;48.116;11.612;2023-04-08T07:21:27;7.00;99.90
50162;DHT22;36061;48.116;11.612;2023-04-08T07:23:55;7.00;99.90
50162;DHT22;36061;48.116;11.612;2023-04-08T07:26:24;7.10;99.90
50162;DHT22;36061;48.116;11.612;2023-04-08T07:28:53;7.10;99.90
50162;DHT22;36061;48.116;11.612;2023-04-08T07:31:20;7.20;99.90
50162;DHT22;36061;48.116;11.612;2023-04-08T07:33:47;7.20;99.90
50162;DHT22;36061;48.116;11.612;2023-04-08T07:36:15;7.30;99.90
50162;DHT22;36061;48.116;11.612;2023-04-08T07:38:43;7.30;99.90
50162;DHT22;36061;48.116;11.612;2023-04-08T07:41:10;7.30;99.90
50162;DHT22;36061;48.116;11.612;2023-04-08T07:43:38;7.30;99.90
50162;DHT22;36061;48.116;11.612;2023-04-08T07:46:06;7.30;99.90
50162;DHT22;36061;48.116;11.612;2023-04-08T07:48:34;7.30;99.90
50162;DHT22;36061;48.116;11.612;2023-04-08T07:51:04;7.30;99.90
50162;DHT22;36061;48.116;11.612;2023-04-08T07:53:32;7.20;99.90
50162;DHT22;36061;48.116;11.612;2023-04-08T07:55:59;7.20;99.90
50162;DHT22;36061;48.116;11.612;2023-04-08T07:58:29;7.10;99.90
50162;DHT22;36061;48.116;11.612;2023-04-08T08:00:58;7.10;99.90
50162;DHT22;36061;48.116;11.612;2023-04-08T08:03:25;7.10;99.90
50162;DHT22;36061;48.116;11.612;2023-04-08T08:05:52;7.10;99.90
50162;DHT22;36061;48.116;11.612;2023-04-08T08:08:20;7.10;99.90
50162;DHT22;36061;48.116;11.612;2023-04-08T08:10:47;7.10;99.90
50162;DHT22;36061;48.116;11.612;2023-04-08T08:13:14;7.10;99.90
50162;DHT22;36061;48.116;11.612;2023-04-08T08:15:45;7.10;99.90
50162;DHT22;36061;48.116;11.612;2023-04-08T08:18:14;7.10;99.90
50162;DHT22;36061;48.116;11.612;2023-04-08T08:20:42;7.10;99.90
50162;DHT22;36061;48.116;11.612;2023-04-08T08:23:09;7.20;99.90
50162;DHT22;36061;48.116;11.612;2023-04-08T08:25:36;7.10;99.90
50162;DHT22;36061;48.116;11.612;2023-04-08T08:28:04;7.10;99.90
50162;DHT22;36061;48.116;11.612;2023-04-08T08:30:31;7.00;99.90
50162;DHT22;36061;48.116;11.612;2023-04-08T08:32:58;6.90;99.90
50162;DHT22;36061;48.116;11.612;2023-04-08T08:35:27;6.90;99.90
50162;DHT22;36061;48.116;11.612;2023-04-08T08:37:54;6.80;99.90
50162;DHT22;36061;48.116;11.612;2023-04-08T08:40:21;6.70;99.90
50162;DHT22;36061;48.116;11.612;2023-04-08T08:42:49;6.60;99.90
50162;DHT22;36061;48.116;11.612;2023-04-08T08:45:18;6.60;99.90
50162;DHT22;36061;48.116;11.612;2023-04-08T08:47:45;6.60;99.90
50162;DHT22;36061;48.116;11.612;2023-04-08T08:50:13;6.60;99.90
50162;DHT22;36061;48.116;11.612;2023-04-08T08:52:48;6.60;99.90
50162;DHT22;36061;48.116;11.612;2023-04-08T08:55:17;6.70;99.90
50162;DHT22;36061;48.116;11.612;2023-04-08T08:57:44;6.70;99.90
50162;DHT22;36061;48.116;11.612;2023-04-08T09:00:13;6.70;99.90
50162;DHT22;36061;48.116;11.612;2023-04-08T09:02:41;6.70;99.90
50162;DHT22;36061;48.116;11.612;2023-04-08T09:05:09;6.80;99.90
50162;DHT22;36061;48.116;11.612;2023-04-08T09:07:38;6.80;99.90
50162;DHT22;36061;48.116;11.612;2023-04-08T09:10:08;6.80;99.90
50162;DHT22;36061;48.116;11.612;2023-04-08T09:12:52;6.90;99.90
50162;DHT22;36061;48.116;11.612;2023-04-08T09:15:20;6.90;99.90
50162;DHT22;36061;48.116;11.612;2023-04-08T09:17:47;6.80;99.90
50162;DHT22;36061;48.116;11.612;2023-04-08T09:20:15;6.80;99.90
50162;DHT22;36061;48.116;11.612;2023-04-08T09:23:00;6.80;99.90
50162;DHT22;36061;48.116;11.612;2023-04-08T09:25:30;6.70;99.90
50162;DHT22;36061;48.116;11.612;2023-04-08T09:27:58;6.60;99.90
50162;DHT22;36061;48.116;11.612;2023-04-08T09:30:27;6.60;99.90
50162;DHT22;36061;48.116;11.612;2023-04-08T09:32:55;6.60;99.90
50162;DHT22;36061;48.116;11.612;2023-04-08T09:35:23;6.50;99.90
50162;DHT22;36061;48.116;11.612;2023-04-08T09:37:51;6.40;99.90
50162;DHT22;36061;48.116;11.612;2023-04-08T09:40:18;6.30;99.90
50162;DHT22;36061;48.116;11.612;2023-04-08T09:42:48;6.20;99.90
50162;DHT22;36061;48.116;11.612;2023-04-08T09:45:19;6.20;99.90
50162;DHT22;36061;48.116;11.612;2023-04-08T09:47:55;6.20;99.90
50162;DHT22;36061;48.116;11.612;2023-04-08T09:50:26;6.20;99.90
50162;DHT22;36061;48.116;11.612;2023-04-08T09:53:00;6.30;99.90
50162;DHT22;36061;48.116;11.612;2023-04-08T09:55:29;6.30;99.90
50162;DHT22;36061;48.116;11.612;2023-04-08T09:58:02;6.30;99.90
50162;DHT22;36061;48.116;11.612;2023-04-08T10:00:33;6.30;99.90
50162;DHT22;36061;48.116;11.612;2023-04-08T10:03:09;6.40;99.90
50162;DHT22;36061;48.116;11.612;2023-04-08T10:05:37;6.30;99.90
50162;DHT22;36061;48.116;11.612;2023-04-08T10:08:06;6.30;99.90
50162;DHT22;36061;48.116;11.612;2023-04-08T10:10:34;6.50;99.90
50162;DHT22;36061;48.116;11.612;2023-04-08T10:13:03;6.60;99.90
50162;DHT22;36061;48.116;11.612;2023-04-08T10:15:32;6.70;99.90
50162;DHT22;36061;48.116;11.612;2023-04-08T10:18:29;6.80;99.90
50162;DHT22;36061;48.116;11.612;2023-04-08T10:20:58;7.00;99.90
50162;DHT22;36061;48.116;11.612;2023-04-08T10:23:53;7.10;99.90
50162;DHT22;36061;48.116;11.612;2023-04-08T10:26:31;7.30;99.90
50162;DHT22;36061;48.116;11.612;2023-04-08T10:32:04;7.70;99.90
50162;DHT22;36061;48.116;11.612;2023-04-08T10:34:31;7.70;99.90
50162;DHT22;36061;48.116;11.612;2023-04-08T10:36:58;7.80;99.90
50162;DHT22;36061;48.116;11.612;2023-04-08T10:39:27;7.80;99.90
50162;DHT22;36061;48.116;11.612;2023-04-08T10:41:54;7.70;99.90
50162;DHT22;36061;48.116;11.612;2023-04-08T10:44:23;7.60;99.90
50162;DHT22;36061;48.116;11.612;2023-04-08T10:46:54;7.60;99.90
50162;DHT22;36061;48.116;11.612;2023-04-08T10:49:32;7.50;99.90
50162;DHT22;36061;48.116;11.612;2023-04-08T10:52:00;7.50;99.90
50162;DHT22;36061;48.116;11.612;2023-04-08T10:54:27;7.50;99.90
50162;DHT22;36061;48.116;11.612;2023-04-08T10:56:54;7.50;99.90
50162;DHT22;36061;48.116;11.612;2023-04-08T10:59:27;7.60;99.90
50162;DHT22;36061;48.116;11.612;2023-04-08T11:01:55;7.50;99.90
50162;DHT22;36061;48.116;11.612;2023-04-08T11:04:24;7.40;99.90
50162;DHT22;36061;48.116;11.612;2023-04-08T11:06:52;7.30;99.90
50162;DHT22;36061;48.116;11.612;2023-04-08T11:09:19;7.30;99.90
50162;DHT22;36061;48.116;11.612;2023-04-08T11:11:46;7.20;99.90
50162;DHT22;36061;48.116;11.612;2023-04-08T11:14:14;7.20;99.90
50162;DHT22;36061;48.116;11.612;2023-04-08T11:16:44;7.20;99.90
50162;DHT22;36061;48.116;11.612;2023-04-08T11:19:12;7.20;99.90
50162;DHT22;36061;48.116;11.612;2023-04-08T11:21:41;7.20;99.90
50162;DHT22;36061;48.116;11.612;2023-04-08T11:24:09;7.10;99.90
50162;DHT22;36061;48.116;11.612;2023-04-08T11:26:38;7.10;99.90
50162;DHT22;36061;48.116;11.612;2023-04-08T11:29:09;7.00;99.90
50162;DHT22;36061;48.116;11.612;2023-04-08T11:31:40;7.00;99.90
50162;DHT22;36061;48.116;11.612;2023-04-08T11:34:07;6.90;99.90
50162;DHT22;36061;48.116;11.612;2023-04-08T11:36:34;6.90;99.90
50162;DHT22;36061;48.116;11.612;2023-04-08T11:39:07;6.90;99.90
50162;DHT22;36061;48.116;11.612;2023-04-08T11:41:37;7.00;99.90
50162;DHT22;36061;48.116;11.612;2023-04-08T11:44:05;7.00;99.90
50162;DHT22;36061;48.116;11.612;2023-04-08T11:46:33;6.90;99.90
50162;DHT22;36061;48.116;11.612;2023-04-08T11:49:02;6.80;99.90
50162;DHT22;36061;48.116;11.612;2023-04-08T11:51:31;6.80;99.90
50162;DHT22;36061;48.116;11.612;2023-04-08T11:53:59;6.70;99.90
50162;DHT22;36061;48.116;11.612;2023-04-08T11:56:28;6.80;99.90
50162;DHT22;36061;48.116;11.612;2023-04-08T11:58:58;6.80;99.90
50162;DHT22;36061;48.116;11.612;2023-04-08T12:01:26;6.80;99.90
50162;DHT22;36061;48.116;11.612;2023-04-08T12:03:57;6.80;99.90
50162;DHT22;36061;48.116;11.612;2023-04-08T12:06:24;6.70;99.90
50162;DHT22;36061;48.116;11.612;2023-04-08T12:08:53;6.70;99.90
50162;DHT22;36061;48.116;11.612;2023-04-08T12:11:21;6.70;99.90
50162;DHT22;36061;48.116;11.612;2023-04-08T12:13:50;6.80;99.90
50162;DHT22;36061;48.116;11.612;2023-04-08T12:16:18;6.80;99.90
50162;DHT22;36061;48.116;11.612;2023-04-08T12:18:45;6.80;99.90
50162;DHT22;36061;48.116;11.612;2023-04-08T12:21:12;6.80;99.90
50162;DHT22;36061;48.116;11.612;2023-04-08T12:23:40;6.70;99.90
50162;DHT22;36061;48.116;11.612;2023-04-08T12:26:07;6.60;99.90
50162;DHT22;36061;48.116;11.612;2023-04-08T12:28:35;6.60;99.90
50162;DHT22;36061;48.116;11.612;2023-04-08T12:31:03;6.60;99.90
50162;DHT22;36061;48.116;11.612;2023-04-08T12:33:31;6.60;99.90
50162;DHT22;36061;48.116;11.612;2023-04-08T12:35:58;6.50;99.90
50162;DHT22;36061;48.116;11.612;2023-04-08T12:38:25;6.50;99.90
50162;DHT22;36061;48.116;11.612;2023-04-08T12:40:53;6.40;99.90
50162;DHT22;36061;48.116;11.612;2023-04-08T12:43:21;6.40;99.90
50162;DHT22;36061;48.116;11.612;2023-04-08T12:45:48;6.50;99.90
50162;DHT22;36061;48.116;11.612;2023-04-08T12:48:17;6.50;99.90
50162;DHT22;36061;48.116;11.612;2023-04-08T12:50:44;6.50;99.90
50162;DHT22;36061;48.116;11.612;2023-04-08T12:53:11;6.40;99.90
50162;DHT22;36061;48.116;11.612;2023-04-08T12:55:38;6.40;99.90
50162;DHT22;36061;48.116;11.612;2023-04-08T12:58:06;6.40;99.90
50162;DHT22;36061;48.116;11.612;2023-04-08T13:00:33;6.40;99.90
50162;DHT22;36061;48.116;11.612;2023-04-08T13:03:03;6.40;99.90
50162;DHT22;36061;48.116;11.612;2023-04-08T13:05:32;6.40;99.90
50162;DHT22;36061;48.116;11.612;2023-04-08T13:07:59;6.40;99.90
50162;DHT22;36061;48.116;11.612;2023-04-08T13:10:26;6.40;99.90
50162;DHT22;36061;48.116;11.612;2023-04-08T13:12:54;6.30;99.90
50162;DHT22;36061;48.116;11.612;2023-04-08T13:15:21;6.20;99.90
50162;DHT22;36061;48.116;11.612;2023-04-08T13:17:48;6.20;99.90
50162;DHT22;36061;48.116;11.612;2023-04-08T13:20:15;6.10;99.90
50162;DHT22;36061;48.116;11.612;2023-04-08T13:22:44;6.10;99.90
50162;DHT22;36061;48.116;11.612;2023-04-08T13:25:11;6.00;99.90
50162;DHT22;36061;48.116;11.612;2023-04-08T13:27:38;6.00;99.90
50162;DHT22;36061;48.116;11.612;2023-04-08T13:30:07;5.90;99.90
50162;DHT22;36061;48.116;11.612;2023-04-08T13:32:34;5.90;99.90
50162;DHT22;36061;48.116;11.612;2023-04-08T13:35:02;5.80;99.90
50162;DHT22;36061;48.116;11.612;2023-04-08T13:37:29;5.80;99.90
50162;DHT22;36061;48.116;11.612;2023-04-08T13:39:58;5.90;99.90
50162;DHT22;36061;48.116;11.612;2023-04-08T13:42:25;5.80;99.90
50162;DHT22;36061;48.116;11.612;2023-04-08T13:44:52;5.80;99.90
50162;DHT22;36061;48.116;11.612;2023-04-08T13:47:20;5.80;99.90
50162;DHT22;36061;48.116;11.612;2023-04-08T13:49:47;5.80;99.90
50162;DHT22;36061;48.116;11.612;2023-04-08T13:52:14;5.80;99.90
50162;DHT22;36061;48.116;11.612;2023-04-08T13:54:42;5.80;99.90
50162;DHT22;36061;48.116;11.612;2023-04-08T13:57:10;5.80;99.90
50162;DHT22;36061;48.116;11.612;2023-04-08T13:59:37;5.80;99.90
50162;DHT22;36061;48.116;11.612;2023-04-08T14:02:05;5.80;99.90
50162;DHT22;36061;48.116;11.612;2023-04-08T14:04:32;5.70;99.90
50162;DHT22;36061;48.116;11.612;2023-04-08T14:06:59;5.80;99.90
50162;DHT22;36061;48.116;11.612;2023-04-08T14:09:27;5.80;99.90
50162;DHT22;36061;48.116;11.612;2023-04-08T14:11:54;5.80;99.90
50162;DHT22;36061;48.116;11.612;2023-04-08T14:14:23;5.80;99.90
50162;DHT22;36061;48.116;11.612;2023-04-08T14:16:50;5.70;99.90
50162;DHT22;36061;48.116;11.612;2023-04-08T14:19:18;5.80;99.90
50162;DHT22;36061;48.116;11.612;2023-04-08T14:21:45;5.80;99.90
50162;DHT22;36061;48.116;11.612;2023-04-08T14:24:12;5.80;99.90
50162;DHT22;36061;48.116;11.612;2023-04-08T14:26:39;5.80;99.90
50162;DHT22;36061;48.116;11.612;2023-04-08T14:29:07;5.90;99.90
50162;DHT22;36061;48.116;11.612;2023-04-08T14:31:35;5.90;99.90
50162;DHT22;36061;48.116;11.612;2023-04-08T14:34:03;6.00;99.90
50162;DHT22;36061;48.116;11.612;2023-04-08T14:36:30;6.00;99.90
50162;DHT22;36061;48.116;11.612;2023-04-08T14:38:57;6.10;99.90
50162;DHT22;36061;48.116;11.612;2023-04-08T14:41:25;6.10;99.90
50162;DHT22;36061;48.116;11.612;2023-04-08T14:43:52;6.10;99.90
50162;DHT22;36061;48.116;11.612;2023-04-08T14:46:19;6.10;99.90
50162;DHT22;36061;48.116;11.612;2023-04-08T14:48:48;6.10;99.90
50162;DHT22;36061;48.116;11.612;2023-04-08T14:51:15;6.10;99.90
50162;DHT22;36061;48.116;11.612;2023-04-08T14:53:42;6.10;99.90
50162;DHT22;36061;48.116;11.612;2023-04-08T14:56:10;6.10;99.90
50162;DHT22;36061;48.116;11.612;2023-04-08T14:58:37;6.10;99.90
50162;DHT22;36061;48.116;11.612;2023-04-08T15:01:05;6.10;99.90
50162;DHT22;36061;48.116;11.612;2023-04-08T15:03:32;6.20;99.90
50162;DHT22;36061;48.116;11.612;2023-04-08T15:06:01;6.20;99.90
50162;DHT22;36061;48.116;11.612;2023-04-08T15:08:28;6.20;99.90
50162;DHT22;36061;48.116;11.612;2023-04-08T15:10:55;6.20;99.90
50162;DHT22;36061;48.116;11.612;2023-04-08T15:13:22;6.20;99.90
50162;DHT22;36061;48.116;11.612;2023-04-08T15:15:50;6.20;99.90
50162;DHT22;36061;48.116;11.612;2023-04-08T15:18:17;6.20;99.90
50162;DHT22;36061;48.116;11.612;2023-04-08T15:20:44;6.10;99.90
50162;DHT22;36061;48.116;11.612;2023-04-08T15:23:13;6.10;99.90
50162;DHT22;36061;48.116;11.612;2023-04-08T15:25:40;6.00;99.90
50162;DHT22;36061;48.116;11.612;2023-04-08T15:28:07;6.00;99.90
50162;DHT22;36061;48.116;11.612;2023-04-08T15:30:34;6.10;99.90
50162;DHT22;36061;48.116;11.612;2023-04-08T15:33:02;6.10;99.90
50162;DHT22;36061;48.116;11.612;2023-04-08T15:35:29;6.10;99.90
50162;DHT22;36061;48.116;11.612;2023-04-08T15:37:57;6.10;99.90
50162;DHT22;36061;48.116;11.612;2023-04-08T15:40:26;6.10;99.90